Time;durP1;ratioP1;P1;durP2;ratioP2;P2;SDS_P1;SDS_P2;PMS_P1;PMS_P2;Temp;Humidity;BMP_temperature;BMP_pressure;BME280_temperature;BME280_humidity;BME280_pressure;Samples;Min_cycle;Max_cycle;Signal;HPM_P1;HPM_P2
2023/12/31 00:00:59;;;;;;;9.70;4.50;;;9.50;99.90;;;;;;5059226;28;20194;-50
2023/12/31 00:03:25;;;;;;;8.50;4.47;;;9.50;99.90;;;;;;5062018;28;20190;-46
2023/12/31 00:05:51;;;;;;;7.70;4.47;;;9.50;99.90;;;;;;5076722;28;20202;-48
2023/12/31 00:08:17;;;;;;;7.32;4.40;;;9.60;99.90;;;;;;5062259;28;20174;-50
2023/12/31 00:10:42;;;;;;;8.38;4.00;;;9.60;99.90;;;;;;5062170;28;20195;-50
2023/12/31 00:13:08;;;;;;;9.77;4.05;;;9.50;99.90;;;;;;5061485;28;20190;-51
2023/12/31 00:15:34;;;;;;;7.72;4.10;;;9.50;99.90;;;;;;5060734;28;20281;-45
2023/12/31 00:18:00;;;;;;;9.07;4.43;;;9.50;99.90;;;;;;5062838;28;20273;-47
2023/12/31 00:20:26;;;;;;;9.30;3.78;;;9.60;99.90;;;;;;5060336;28;20242;-53
2023/12/31 00:22:52;;;;;;;7.70;4.32;;;9.60;99.90;;;;;;5060545;28;20201;-43
2023/12/31 00:25:18;;;;;;;5.80;3.55;;;9.60;99.90;;;;;;5062949;28;20583;-50
2023/12/31 00:27:44;;;;;;;8.07;4.30;;;9.60;99.90;;;;;;5062166;28;20198;-53
2023/12/31 00:30:11;;;;;;;9.57;3.95;;;9.70;99.90;;;;;;5062271;28;20666;-47
2023/12/31 00:32:37;;;;;;;6.35;3.80;;;9.70;99.90;;;;;;5041945;28;20240;-50
2023/12/31 00:35:04;;;;;;;7.45;3.83;;;9.70;99.90;;;;;;5061384;28;20190;-55
2023/12/31 00:37:30;;;;;;;6.40;3.95;;;9.70;99.90;;;;;;5060953;28;21714;-52
2023/12/31 00:39:56;;;;;;;5.88;3.80;;;9.80;99.90;;;;;;5063366;28;20190;-46
2023/12/31 00:42:22;;;;;;;5.85;3.67;;;9.80;99.90;;;;;;5059984;28;20267;-48
2023/12/31 00:44:48;;;;;;;6.13;4.05;;;9.80;99.90;;;;;;5058671;28;20237;-48
2023/12/31 00:47:14;;;;;;;6.30;3.60;;;9.80;99.90;;;;;;5077768;28;20198;-50
2023/12/31 00:49:40;;;;;;;6.60;3.70;;;9.80;99.90;;;;;;5060225;28;20313;-52
2023/12/31 00:52:06;;;;;;;4.90;3.10;;;9.80;99.90;;;;;;5060133;28;20286;-50
2023/12/31 00:54:32;;;;;;;5.78;3.47;;;9.80;99.90;;;;;;5062405;28;20294;-52
2023/12/31 00:56:59;;;;;;;5.93;3.58;;;9.90;99.90;;;;;;5059672;28;20674;-49
2023/12/31 00:59:25;;;;;;;7.97;3.75;;;9.80;99.90;;;;;;5061656;28;20191;-50
2023/12/31 01:01:51;;;;;;;8.98;3.63;;;9.80;99.90;;;;;;5060777;28;20552;-50
2023/12/31 01:04:17;;;;;;;5.78;3.53;;;9.80;99.90;;;;;;5061313;28;20195;-53
2023/12/31 01:06:42;;;;;;;6.47;3.75;;;9.80;99.90;;;;;;5061632;28;20539;-53
2023/12/31 01:09:10;;;;;;;6.95;3.13;;;9.80;99.90;;;;;;5062938;28;20213;-50
2023/12/31 01:11:36;;;;;;;9.38;3.63;;;9.70;99.90;;;;;;5059644;28;20190;-55
2023/12/31 01:14:02;;;;;;;5.75;3.45;;;9.70;99.90;;;;;;5044614;28;20562;-49
2023/12/31 01:16:28;;;;;;;8.43;3.70;;;9.70;99.90;;;;;;5062681;28;20599;-47
2023/12/31 01:18:54;;;;;;;8.93;5.15;;;9.60;99.90;;;;;;5061052;28;20573;-52
2023/12/31 01:21:20;;;;;;;8.27;3.63;;;9.60;99.90;;;;;;5063188;28;20202;-45
2023/12/31 01:23:46;;;;;;;5.15;3.45;;;9.60;99.90;;;;;;5066621;28;20689;-48
2023/12/31 01:26:12;;;;;;;4.95;3.20;;;9.60;99.90;;;;;;5064384;28;20195;-51
2023/12/31 01:28:38;;;;;;;6.65;3.70;;;9.60;99.90;;;;;;5064519;28;20211;-49
2023/12/31 01:31:04;;;;;;;5.05;3.33;;;9.60;99.90;;;;;;5064390;28;20193;-55
2023/12/31 01:33:29;;;;;;;6.07;3.47;;;9.60;99.90;;;;;;5063891;28;20528;-49
2023/12/31 01:35:56;;;;;;;7.07;3.30;;;9.60;99.90;;;;;;5064633;28;20274;-47
2023/12/31 01:38:22;;;;;;;7.50;3.70;;;9.60;99.90;;;;;;5063976;28;20740;-48
2023/12/31 01:40:54;;;;;;;6.85;3.25;;;9.50;99.90;;;;;;5063810;28;20239;-47
2023/12/31 01:43:23;;;;;;;4.97;3.00;;;9.50;99.90;;;;;;5050763;28;20187;-52
2023/12/31 01:45:49;;;;;;;5.35;3.53;;;9.60;99.90;;;;;;5063913;28;20214;-53
2023/12/31 01:48:15;;;;;;;6.38;2.90;;;9.50;99.90;;;;;;5065071;28;20228;-48
2023/12/31 01:50:42;;;;;;;4.53;3.40;;;9.50;99.90;;;;;;5064310;28;20650;-52
2023/12/31 01:53:12;;;;;;;3.90;2.58;;;9.40;99.90;;;;;;5078835;28;20194;-45
2023/12/31 01:55:38;;;;;;;4.80;3.10;;;9.40;99.90;;;;;;5064246;28;20183;-46
2023/12/31 01:58:04;;;;;;;5.35;2.60;;;9.30;99.90;;;;;;5063409;28;20203;-54
2023/12/31 02:00:31;;;;;;;3.75;2.97;;;9.30;99.90;;;;;;5064056;28;20575;-53
2023/12/31 02:02:59;;;;;;;6.30;3.05;;;9.30;99.90;;;;;;5063015;28;20240;-46
2023/12/31 02:05:25;;;;;;;6.10;3.25;;;9.20;99.90;;;;;;5062735;28;20674;-53
2023/12/31 02:07:51;;;;;;;4.40;2.92;;;9.20;99.90;;;;;;5046422;28;20199;-49
2023/12/31 02:10:18;;;;;;;4.55;2.60;;;9.20;99.90;;;;;;5062009;28;20210;-46
2023/12/31 02:12:44;;;;;;;3.65;2.80;;;9.10;99.90;;;;;;5063191;28;20183;-48
2023/12/31 02:15:10;;;;;;;7.32;2.88;;;9.10;99.90;;;;;;5062793;28;20189;-56
2023/12/31 02:17:36;;;;;;;4.43;2.55;;;9.10;99.90;;;;;;5047175;28;20182;-47
2023/12/31 02:20:03;;;;;;;4.63;3.05;;;9.10;99.90;;;;;;5049508;28;20202;-50
2023/12/31 02:22:29;;;;;;;5.80;2.75;;;9.10;99.90;;;;;;5064149;28;20654;-52
2023/12/31 02:25:03;;;;;;;6.07;2.90;;;9.10;99.90;;;;;;5064998;28;20229;-46
2023/12/31 02:27:29;;;;;;;7.40;2.95;;;9.00;99.90;;;;;;5078685;28;20180;-48
2023/12/31 02:30:00;;;;;;;4.38;2.60;;;9.00;99.90;;;;;;5061846;28;20221;-53
2023/12/31 02:32:26;;;;;;;3.28;2.38;;;9.10;99.90;;;;;;5064498;28;20205;-46
2023/12/31 02:34:52;;;;;;;5.13;2.53;;;9.10;99.90;;;;;;5062443;28;20178;-50
2023/12/31 02:37:18;;;;;;;2.60;2.30;;;9.00;99.90;;;;;;5061956;28;20277;-52
2023/12/31 02:39:44;;;;;;;6.90;2.60;;;9.10;99.90;;;;;;5063844;28;20195;-49
2023/12/31 02:42:10;;;;;;;4.07;2.70;;;9.10;99.90;;;;;;5063561;28;20202;-47
2023/12/31 02:44:35;;;;;;;4.85;2.67;;;9.10;99.90;;;;;;5062632;28;20289;-48
2023/12/31 02:47:02;;;;;;;5.50;2.78;;;9.10;99.90;;;;;;5064293;28;20194;-49
2023/12/31 02:49:28;;;;;;;3.67;2.50;;;9.10;99.90;;;;;;5063153;28;20637;-49
2023/12/31 02:51:54;;;;;;;3.58;2.20;;;9.00;99.90;;;;;;5061353;28;20229;-51
2023/12/31 02:54:19;;;;;;;3.58;2.40;;;9.00;99.90;;;;;;5064206;28;20214;-47
2023/12/31 02:56:45;;;;;;;4.40;2.60;;;9.10;99.90;;;;;;5063173;28;20835;-47
2023/12/31 02:59:11;;;;;;;4.72;2.45;;;9.00;99.90;;;;;;5062217;28;20222;-51
2023/12/31 03:01:37;;;;;;;4.03;2.60;;;9.10;99.90;;;;;;5079202;28;20193;-46
2023/12/31 03:04:04;;;;;;;4.05;2.58;;;9.00;99.90;;;;;;5078578;28;20562;-45
2023/12/31 03:06:32;;;;;;;2.90;2.50;;;9.10;99.90;;;;;;5062498;28;20757;-49
2023/12/31 03:09:01;;;;;;;4.97;2.63;;;9.00;99.90;;;;;;5062105;28;20221;-53
2023/12/31 03:11:27;;;;;;;4.20;2.65;;;9.10;99.90;;;;;;5062410;28;20191;-55
2023/12/31 03:13:53;;;;;;;4.85;2.63;;;9.00;99.90;;;;;;5062775;28;20251;-49
2023/12/31 03:16:19;;;;;;;4.63;2.80;;;9.10;99.90;;;;;;5062678;28;20582;-44
2023/12/31 03:18:45;;;;;;;4.18;2.63;;;9.10;99.90;;;;;;5062352;28;20566;-49
2023/12/31 03:21:15;;;;;;;3.83;2.60;;;9.10;99.90;;;;;;5060745;28;20255;-49
2023/12/31 03:23:41;;;;;;;7.45;2.60;;;9.10;99.90;;;;;;5063536;28;20191;-53
2023/12/31 03:26:07;;;;;;;4.80;2.75;;;9.10;99.90;;;;;;5057209;28;20187;-48
2023/12/31 03:28:33;;;;;;;4.78;2.70;;;9.10;99.90;;;;;;5062390;28;20229;-47
2023/12/31 03:30:59;;;;;;;5.35;2.90;;;9.10;99.90;;;;;;5063737;28;20547;-49
2023/12/31 03:33:26;;;;;;;4.68;3.00;;;9.00;99.90;;;;;;5060619;28;20277;-50
2023/12/31 03:35:52;;;;;;;5.15;3.17;;;8.90;99.90;;;;;;5061989;28;20198;-54
2023/12/31 03:38:18;;;;;;;6.75;2.85;;;8.90;99.90;;;;;;5063097;28;20665;-50
2023/12/31 03:40:44;;;;;;;5.40;3.28;;;8.90;99.90;;;;;;5060447;28;20251;-59
2023/12/31 03:43:10;;;;;;;6.78;3.50;;;8.80;99.90;;;;;;5059701;28;20888;-52
2023/12/31 03:45:36;;;;;;;7.78;2.92;;;8.80;99.90;;;;;;5061226;28;20226;-50
2023/12/31 03:48:02;;;;;;;6.78;3.47;;;8.70;99.90;;;;;;5060845;28;20186;-49
2023/12/31 03:50:28;;;;;;;5.80;3.08;;;8.70;99.90;;;;;;5061797;28;20210;-48
2023/12/31 03:52:55;;;;;;;6.93;3.47;;;8.70;99.90;;;;;;5063486;28;20195;-50
2023/12/31 03:55:20;;;;;;;3.92;3.15;;;8.60;99.90;;;;;;5061796;28;20232;-47
2023/12/31 03:57:46;;;;;;;7.50;2.85;;;8.50;99.90;;;;;;5060322;28;20189;-51
2023/12/31 04:00:13;;;;;;;6.50;3.38;;;8.60;99.90;;;;;;5061368;28;20202;-48
2023/12/31 04:02:38;;;;;;;3.42;2.70;;;8.50;99.90;;;;;;5061671;28;20260;-51
2023/12/31 04:05:05;;;;;;;6.43;3.28;;;8.50;99.90;;;;;;5060260;28;20190;-52
2023/12/31 04:07:32;;;;;;;4.68;3.22;;;8.50;99.90;;;;;;5062785;28;20749;-52
2023/12/31 04:09:58;;;;;;;4.75;2.67;;;8.50;99.90;;;;;;5061627;28;20210;-43
2023/12/31 04:12:23;;;;;;;4.13;2.92;;;8.50;99.90;;;;;;5061967;28;20690;-50
2023/12/31 04:14:49;;;;;;;4.50;2.88;;;8.50;99.90;;;;;;5062436;28;20297;-47
2023/12/31 04:17:15;;;;;;;4.78;3.10;;;8.50;99.90;;;;;;5061063;28;20218;-45
2023/12/31 04:19:41;;;;;;;4.70;2.63;;;8.50;99.90;;;;;;5060721;28;20228;-50
2023/12/31 04:22:07;;;;;;;5.88;3.20;;;8.50;99.90;;;;;;5060550;28;20191;-47
2023/12/31 04:24:33;;;;;;;4.18;3.10;;;8.40;99.90;;;;;;5060397;28;20669;-50
2023/12/31 04:26:59;;;;;;;4.60;3.03;;;8.40;99.90;;;;;;5044559;28;20194;-51
2023/12/31 04:29:25;;;;;;;7.15;3.42;;;8.40;99.90;;;;;;5061666;28;20246;-46
2023/12/31 04:31:51;;;;;;;4.20;3.00;;;8.40;99.90;;;;;;5060967;28;20210;-44
2023/12/31 04:34:17;;;;;;;4.43;2.83;;;8.50;99.90;;;;;;5061838;28;20178;-49
2023/12/31 04:36:44;;;;;;;7.97;3.47;;;8.40;99.90;;;;;;5061643;28;20232;-44
2023/12/31 04:39:11;;;;;;;6.15;3.10;;;8.40;99.90;;;;;;5061648;28;20854;-49
2023/12/31 04:41:37;;;;;;;7.40;3.50;;;8.40;99.90;;;;;;5061111;28;20183;-48
2023/12/31 04:44:03;;;;;;;5.00;3.30;;;8.50;99.90;;;;;;5059366;28;20926;-46
2023/12/31 04:46:29;;;;;;;5.47;3.40;;;8.40;99.90;;;;;;5043225;28;20237;-53
2023/12/31 04:48:56;;;;;;;5.43;3.30;;;8.40;99.90;;;;;;5077275;28;20238;-46
2023/12/31 04:51:25;;;;;;;6.82;3.15;;;8.50;99.90;;;;;;5061772;28;20178;-52
2023/12/31 04:53:52;;;;;;;3.70;2.38;;;8.40;99.90;;;;;;5064948;28;20242;-49
2023/12/31 04:56:22;;;;;;;3.97;2.70;;;8.50;99.90;;;;;;5064668;28;20178;-53
2023/12/31 04:58:52;;;;;;;4.90;2.55;;;8.50;99.90;;;;;;5065665;28;20190;-47
2023/12/31 05:01:18;;;;;;;5.70;3.05;;;8.50;99.90;;;;;;5065144;28;20226;-45
2023/12/31 05:03:50;;;;;;;4.47;2.80;;;8.50;99.90;;;;;;5065171;28;20194;-52
2023/12/31 05:06:16;;;;;;;4.95;3.08;;;8.50;99.90;;;;;;5064818;28;20271;-44
2023/12/31 05:08:43;;;;;;;7.38;3.55;;;8.50;99.90;;;;;;5065048;28;20214;-46
2023/12/31 05:11:10;;;;;;;4.43;3.00;;;8.50;99.90;;;;;;5065081;28;20548;-50
2023/12/31 05:13:41;;;;;;;8.75;3.22;;;8.50;99.90;;;;;;5064998;28;20179;-46
2023/12/31 05:16:14;;;;;;;5.32;3.10;;;8.50;99.90;;;;;;5066700;28;20182;-50
2023/12/31 05:18:43;;;;;;;5.45;3.42;;;8.50;99.90;;;;;;5065265;28;20577;-53
2023/12/31 05:21:10;;;;;;;5.18;3.88;;;8.50;99.90;;;;;;5063027;28;20189;-47
2023/12/31 05:23:36;;;;;;;6.85;3.25;;;8.50;99.90;;;;;;5065643;28;20182;-47
2023/12/31 05:26:02;;;;;;;5.32;3.53;;;8.50;99.90;;;;;;5063881;28;20182;-50
2023/12/31 05:28:28;;;;;;;5.30;3.30;;;8.50;99.90;;;;;;5064565;28;20182;-51
2023/12/31 05:30:54;;;;;;;7.30;3.35;;;8.60;99.90;;;;;;5065196;28;20240;-47
2023/12/31 05:33:20;;;;;;;4.78;3.38;;;8.50;99.90;;;;;;5063030;28;20186;-47
2023/12/31 05:35:45;;;;;;;5.88;3.40;;;8.50;99.90;;;;;;5064892;28;20212;-50
2023/12/31 05:38:11;;;;;;;6.63;3.90;;;8.60;99.90;;;;;;5065367;28;20186;-45
2023/12/31 05:40:37;;;;;;;4.80;3.65;;;8.60;99.90;;;;;;5064303;28;20182;-47
2023/12/31 05:43:03;;;;;;;5.55;3.78;;;8.60;99.90;;;;;;5064579;28;20202;-55
2023/12/31 05:45:30;;;;;;;7.35;3.60;;;8.60;99.90;;;;;;5064726;28;20233;-46
2023/12/31 05:47:56;;;;;;;5.53;3.75;;;8.60;99.90;;;;;;5063971;28;20197;-49
2023/12/31 05:50:22;;;;;;;4.88;3.78;;;8.60;99.90;;;;;;5063383;28;20569;-53
2023/12/31 05:52:48;;;;;;;5.55;3.80;;;8.60;99.90;;;;;;5065343;28;20187;-50
2023/12/31 05:55:14;;;;;;;7.35;4.13;;;8.60;99.90;;;;;;5063948;28;20288;-54
2023/12/31 05:57:42;;;;;;;8.25;4.32;;;8.60;99.90;;;;;;5063815;28;20210;-49
2023/12/31 06:00:09;;;;;;;6.20;4.25;;;8.70;99.90;;;;;;5061164;28;20726;-48
2023/12/31 06:02:38;;;;;;;6.20;3.53;;;8.60;99.90;;;;;;5049265;28;20183;-49
2023/12/31 06:05:04;;;;;;;5.72;3.83;;;8.70;99.90;;;;;;5063057;28;20225;-50
2023/12/31 06:07:30;;;;;;;7.60;4.05;;;8.60;99.90;;;;;;5065303;28;20321;-50
2023/12/31 06:09:56;;;;;;;6.85;4.00;;;8.60;99.90;;;;;;5061960;28;20788;-45
2023/12/31 06:12:22;;;;;;;6.90;4.15;;;8.60;99.90;;;;;;5062325;28;20190;-47
2023/12/31 06:14:48;;;;;;;6.93;3.80;;;8.70;99.90;;;;;;5062770;28;20865;-46
2023/12/31 06:17:14;;;;;;;6.38;3.67;;;8.70;99.90;;;;;;5063924;28;20222;-53
2023/12/31 06:19:40;;;;;;;7.80;4.13;;;8.70;99.90;;;;;;5063721;28;20218;-51
2023/12/31 06:22:06;;;;;;;6.50;4.05;;;8.70;99.90;;;;;;5064527;28;20285;-48
2023/12/31 06:24:32;;;;;;;6.18;4.13;;;8.70;99.90;;;;;;5061511;28;20269;-44
2023/12/31 06:26:59;;;;;;;7.05;4.10;;;8.70;99.90;;;;;;5063938;28;20198;-47
2023/12/31 06:29:25;;;;;;;6.50;4.05;;;8.80;99.90;;;;;;5064351;28;20268;-49
2023/12/31 06:31:51;;;;;;;7.70;3.65;;;8.70;99.90;;;;;;5064011;28;20215;-45
2023/12/31 06:34:18;;;;;;;5.78;4.15;;;8.70;99.90;;;;;;5063559;28;20187;-48
2023/12/31 06:36:43;;;;;;;6.72;4.03;;;8.80;99.90;;;;;;5063807;28;20310;-47
2023/12/31 06:39:10;;;;;;;8.10;4.10;;;8.80;99.90;;;;;;5061918;28;20285;-48
2023/12/31 06:41:37;;;;;;;7.07;4.57;;;8.80;99.90;;;;;;5061463;28;20194;-47
2023/12/31 06:44:03;;;;;;;5.20;3.75;;;8.80;99.90;;;;;;5064125;28;20194;-49
2023/12/31 06:46:29;;;;;;;4.50;3.53;;;8.80;99.90;;;;;;5063043;28;20237;-48
2023/12/31 06:48:56;;;;;;;4.63;4.03;;;8.80;99.90;;;;;;5064981;28;20232;-47
2023/12/31 06:51:22;;;;;;;5.72;4.00;;;8.90;99.90;;;;;;5063020;28;20557;-49
2023/12/31 06:53:48;;;;;;;5.70;3.67;;;8.80;99.90;;;;;;5063469;28;20183;-45
2023/12/31 06:56:17;;;;;;;5.70;3.95;;;8.80;99.90;;;;;;5063971;28;20199;-49
2023/12/31 06:58:43;;;;;;;7.22;3.80;;;8.90;99.90;;;;;;5063407;28;20247;-52
2023/12/31 07:01:09;;;;;;;4.97;3.80;;;8.90;99.90;;;;;;5078755;28;20277;-52
2023/12/31 07:03:35;;;;;;;7.43;3.97;;;8.90;99.90;;;;;;5062497;28;20530;-54
2023/12/31 07:06:01;;;;;;;6.57;3.90;;;8.90;99.90;;;;;;5062873;28;20251;-55
2023/12/31 07:08:27;;;;;;;7.93;4.10;;;8.80;99.90;;;;;;5062557;28;20669;-47
2023/12/31 07:10:54;;;;;;;6.30;4.03;;;8.90;99.90;;;;;;5062965;28;20236;-52
2023/12/31 07:13:20;;;;;;;6.47;4.18;;;8.90;99.90;;;;;;5062261;28;20729;-44
2023/12/31 07:15:46;;;;;;;6.65;4.05;;;8.90;99.90;;;;;;5062896;28;20190;-54
2023/12/31 07:18:12;;;;;;;5.80;4.35;;;8.90;99.90;;;;;;5062850;28;20666;-46
2023/12/31 07:20:39;;;;;;;7.18;3.90;;;8.90;99.90;;;;;;5062569;28;20622;-51
2023/12/31 07:23:05;;;;;;;4.80;3.80;;;8.90;99.90;;;;;;5062938;28;20182;-46
2023/12/31 07:25:32;;;;;;;5.25;3.70;;;8.90;99.90;;;;;;5063312;28;20191;-53
2023/12/31 07:28:01;;;;;;;5.50;3.80;;;8.90;99.90;;;;;;5064259;28;20190;-49
2023/12/31 07:30:27;;;;;;;4.75;3.50;;;8.90;99.90;;;;;;5064117;28;20650;-52
2023/12/31 07:32:53;;;;;;;4.50;3.53;;;8.90;99.90;;;;;;5062467;28;20251;-46
2023/12/31 07:35:19;;;;;;;5.03;3.40;;;8.90;99.90;;;;;;5061336;28;20213;-50
2023/12/31 07:37:46;;;;;;;4.88;3.33;;;8.90;99.90;;;;;;5061800;28;20179;-53
2023/12/31 07:40:11;;;;;;;5.53;3.45;;;8.90;99.90;;;;;;5062727;28;20555;-49
2023/12/31 07:42:37;;;;;;;5.68;3.50;;;8.90;99.90;;;;;;5062464;28;20201;-48
2023/12/31 07:45:05;;;;;;;5.90;3.42;;;9.00;99.90;;;;;;5064260;28;20226;-49
2023/12/31 07:47:35;;;;;;;4.95;3.67;;;8.90;99.90;;;;;;5063326;28;20237;-53
2023/12/31 07:50:02;;;;;;;4.95;3.47;;;9.00;99.90;;;;;;5063712;28;20218;-49
2023/12/31 07:52:29;;;;;;;5.15;3.60;;;9.00;99.90;;;;;;5062597;28;20267;-51
2023/12/31 07:54:54;;;;;;;4.10;3.30;;;9.10;99.90;;;;;;5059630;28;20191;-47
2023/12/31 07:57:21;;;;;;;6.55;3.80;;;9.10;99.90;;;;;;5062017;28;20447;-52
2023/12/31 07:59:47;;;;;;;5.30;3.45;;;9.10;99.90;;;;;;5062387;28;20197;-51
2023/12/31 08:02:13;;;;;;;4.78;3.30;;;9.20;99.90;;;;;;5060818;28;20182;-55
2023/12/31 08:04:39;;;;;;;5.47;3.60;;;9.20;99.90;;;;;;5061548;28;20198;-48
2023/12/31 08:07:05;;;;;;;5.18;3.13;;;9.30;99.90;;;;;;5063268;28;20611;-52
2023/12/31 08:09:31;;;;;;;6.13;3.53;;;9.30;99.90;;;;;;5061973;28;20218;-45
2023/12/31 08:11:57;;;;;;;3.88;3.13;;;9.40;99.90;;;;;;5061845;28;20175;-51
2023/12/31 08:14:23;;;;;;;3.70;3.00;;;9.40;99.90;;;;;;5063303;28;20721;-50
2023/12/31 08:16:49;;;;;;;4.22;2.95;;;9.50;99.90;;;;;;5062204;28;20193;-49
2023/12/31 08:19:16;;;;;;;5.20;3.28;;;9.50;99.90;;;;;;5061795;28;20191;-53
2023/12/31 08:21:42;;;;;;;5.25;3.63;;;9.60;99.90;;;;;;5062559;28;20755;-52
2023/12/31 08:24:08;;;;;;;5.47;3.88;;;9.60;99.90;;;;;;5061857;28;20189;-51
2023/12/31 08:26:36;;;;;;;5.97;3.30;;;9.60;99.90;;;;;;5062669;28;20551;-51
2023/12/31 08:29:03;;;;;;;4.78;3.38;;;9.70;99.90;;;;;;5061578;28;20244;-50
2023/12/31 08:31:28;;;;;;;5.78;3.47;;;9.70;99.90;;;;;;5061807;28;20317;-51
2023/12/31 08:33:54;;;;;;;5.90;3.63;;;9.70;99.90;;;;;;5062445;28;20336;-51
2023/12/31 08:36:20;;;;;;;3.88;2.90;;;9.70;99.90;;;;;;5060150;28;20297;-44
2023/12/31 08:38:46;;;;;;;3.88;2.90;;;9.70;99.90;;;;;;5061206;28;20332;-49
2023/12/31 08:41:12;;;;;;;4.38;3.22;;;9.60;99.90;;;;;;5062543;28;20301;-44
2023/12/31 08:43:38;;;;;;;4.63;3.58;;;9.70;99.90;;;;;;5062121;28;20183;-49
2023/12/31 08:46:04;;;;;;;6.68;3.17;;;9.60;99.90;;;;;;5059159;28;20230;-48
2023/12/31 08:48:30;;;;;;;4.88;3.22;;;9.60;99.90;;;;;;5059770;28;20231;-50
2023/12/31 08:50:56;;;;;;;4.78;3.17;;;9.60;99.90;;;;;;5062331;28;21310;-53
2023/12/31 08:53:21;;;;;;;4.60;3.10;;;9.60;99.90;;;;;;5061035;28;20625;-50
2023/12/31 08:55:48;;;;;;;4.90;3.08;;;9.60;99.90;;;;;;5059724;28;20182;-45
2023/12/31 08:58:14;;;;;;;5.25;3.50;;;9.60;99.90;;;;;;5057876;28;20186;-50
2023/12/31 09:00:41;;;;;;;5.07;3.33;;;9.60;99.90;;;;;;5059475;28;20932;-52
2023/12/31 09:03:07;;;;;;;5.57;3.55;;;9.60;99.90;;;;;;5058047;28;20194;-50
2023/12/31 09:05:32;;;;;;;5.85;3.83;;;9.60;99.90;;;;;;5059814;28;20195;-52
2023/12/31 09:07:58;;;;;;;5.63;3.72;;;9.60;99.90;;;;;;5060781;28;20178;-48
2023/12/31 09:10:25;;;;;;;4.68;3.42;;;9.60;99.90;;;;;;5060519;28;20221;-50
2023/12/31 09:12:51;;;;;;;4.28;3.20;;;9.60;99.90;;;;;;5060893;28;20182;-52
2023/12/31 09:15:17;;;;;;;6.70;3.63;;;9.70;99.90;;;;;;5061226;28;20571;-50
2023/12/31 09:17:43;;;;;;;7.22;3.95;;;9.70;99.90;;;;;;5061303;28;20728;-46
2023/12/31 09:20:09;;;;;;;5.22;3.70;;;9.70;99.90;;;;;;5060117;28;20470;-53
2023/12/31 09:22:35;;;;;;;6.28;3.85;;;9.70;99.90;;;;;;5061464;28;20199;-49
2023/12/31 09:25:02;;;;;;;4.07;3.10;;;9.80;99.90;;;;;;5062095;28;20182;-52
2023/12/31 09:27:28;;;;;;;6.90;3.40;;;9.80;99.90;;;;;;5060200;28;20187;-47
2023/12/31 09:29:53;;;;;;;6.00;3.28;;;9.90;99.90;;;;;;5061998;28;20206;-48
2023/12/31 09:32:20;;;;;;;5.05;3.47;;;9.90;99.90;;;;;;5062279;28;20175;-51
2023/12/31 09:34:46;;;;;;;4.38;3.28;;;9.90;99.90;;;;;;5059854;28;20225;-46
2023/12/31 09:37:18;;;;;;;6.53;3.20;;;10.00;99.90;;;;;;5061088;28;20195;-51
2023/12/31 09:39:44;;;;;;;7.22;3.45;;;10.00;99.90;;;;;;5063564;28;20190;-53
2023/12/31 09:42:12;;;;;;;4.03;3.08;;;10.10;99.90;;;;;;5064181;28;20222;-50
2023/12/31 09:44:40;;;;;;;6.03;3.03;;;10.10;99.90;;;;;;5079288;28;20221;-45
2023/12/31 09:47:08;;;;;;;5.88;3.47;;;10.10;99.90;;;;;;5064856;28;20218;-51
2023/12/31 09:49:35;;;;;;;12.30;8.18;;;10.20;99.90;;;;;;5064269;28;20296;-44
2023/12/31 09:52:03;;;;;;;5.60;3.80;;;10.20;99.90;;;;;;5080151;28;20214;-48
2023/12/31 09:54:31;;;;;;;5.47;3.80;;;10.20;99.90;;;;;;5064587;28;20183;-51
2023/12/31 09:56:58;;;;;;;5.95;3.50;;;10.20;99.90;;;;;;5065060;28;20268;-49
2023/12/31 09:59:26;;;;;;;4.32;3.40;;;10.20;99.90;;;;;;5063638;28;20181;-52
2023/12/31 10:01:59;;;;;;;4.47;3.38;;;10.30;99.90;;;;;;5064328;28;20199;-44
2023/12/31 10:04:26;;;;;;;5.43;4.00;;;10.30;99.90;;;;;;5065258;28;20639;-48
2023/12/31 10:06:53;;;;;;;4.85;3.70;;;10.30;99.90;;;;;;5064672;28;20195;-52
2023/12/31 10:09:23;;;;;;;6.90;4.40;;;10.30;99.90;;;;;;5062961;28;20259;-49
2023/12/31 10:11:49;;;;;;;6.13;3.92;;;10.40;99.90;;;;;;5064742;28;20178;-49
2023/12/31 10:14:16;;;;;;;6.00;3.70;;;10.40;99.90;;;;;;5063255;28;20191;-48
2023/12/31 10:16:43;;;;;;;8.18;4.50;;;10.40;99.90;;;;;;5063857;28;20617;-47
2023/12/31 10:19:13;;;;;;;23.48;8.32;;;10.50;99.90;;;;;;5064070;28;20226;-51
2023/12/31 10:21:41;;;;;;;14.05;6.63;;;10.40;99.90;;;;;;5064703;28;20739;-46
2023/12/31 10:24:08;;;;;;;4.00;3.40;;;10.50;99.90;;;;;;5063999;28;20708;-49
2023/12/31 10:26:34;;;;;;;5.32;4.00;;;10.60;99.90;;;;;;5064269;28;20312;-52
2023/12/31 10:29:01;;;;;;;6.05;3.95;;;10.50;99.90;;;;;;5064745;28;20305;-52
2023/12/31 10:31:27;;;;;;;6.82;3.75;;;10.60;99.90;;;;;;5063855;28;20643;-47
2023/12/31 10:33:53;;;;;;;4.65;3.35;;;10.60;99.90;;;;;;5063475;28;20672;-50
2023/12/31 10:36:23;;;;;;;6.72;3.75;;;10.70;99.90;;;;;;5064864;28;20183;-48
2023/12/31 10:38:51;;;;;;;6.47;4.03;;;10.70;99.90;;;;;;5063568;28;20205;-50
2023/12/31 10:41:22;;;;;;;5.25;3.75;;;10.70;99.90;;;;;;5064064;28;20540;-51
2023/12/31 10:43:49;;;;;;;5.63;3.90;;;10.80;99.90;;;;;;5064515;28;20209;-47
2023/12/31 10:46:16;;;;;;;6.38;3.80;;;10.80;99.90;;;;;;5062999;28;20580;-51
2023/12/31 10:49:01;;;;;;;7.97;4.40;;;10.80;99.90;;;;;;5062132;28;20944;-52
2023/12/31 10:51:27;;;;;;;7.38;4.40;;;10.80;99.90;;;;;;5061358;28;20179;-56
2023/12/31 10:54:01;;;;;;;7.43;3.85;;;10.80;99.90;;;;;;5062691;28;20322;-54
2023/12/31 10:56:28;;;;;;;6.38;4.13;;;10.80;99.90;;;;;;5063459;28;20213;-46
2023/12/31 10:58:54;;;;;;;6.72;4.43;;;10.90;99.90;;;;;;5064204;28;20556;-51
2023/12/31 11:01:24;;;;;;;6.22;4.00;;;11.00;99.90;;;;;;5062881;28;20205;-53
2023/12/31 11:03:52;;;;;;;5.70;4.45;;;11.00;99.90;;;;;;5063270;28;20202;-50
2023/12/31 11:06:19;;;;;;;7.32;4.18;;;11.10;99.90;;;;;;5079333;28;20640;-50
2023/12/31 11:08:46;;;;;;;4.63;3.72;;;11.10;99.90;;;;;;5062537;28;20273;-51
2023/12/31 11:11:14;;;;;;;5.50;4.05;;;11.20;99.90;;;;;;5061054;28;20214;-49
2023/12/31 11:13:44;;;;;;;6.85;4.25;;;11.20;99.90;;;;;;5061675;28;20300;-52
2023/12/31 11:16:28;;;;;;;6.03;3.90;;;11.30;99.90;;;;;;5063211;28;20179;-50
2023/12/31 11:19:06;;;;;;;5.13;3.70;;;11.30;99.90;;;;;;5063604;28;20186;-54
2023/12/31 11:21:57;;;;;;;4.80;3.90;;;11.30;99.90;;;;;;5076379;28;20236;-48
2023/12/31 11:24:25;;;;;;;6.88;3.72;;;11.30;99.90;;;;;;5061882;28;20190;-48
2023/12/31 11:27:21;;;;;;;7.00;4.00;;;11.30;99.90;;;;;;5029298;28;20202;-50
2023/12/31 11:29:49;;;;;;;5.55;4.00;;;11.30;99.90;;;;;;5012376;28;20250;-50
2023/12/31 11:32:17;;;;;;;6.53;4.55;;;11.20;99.90;;;;;;5029068;28;20208;-47
2023/12/31 11:34:43;;;;;;;8.50;4.70;;;11.20;99.90;;;;;;5044547;28;20197;-51
2023/12/31 11:37:09;;;;;;;6.03;4.45;;;11.10;99.90;;;;;;5062955;28;20194;-46
2023/12/31 11:39:35;;;;;;;6.78;4.32;;;11.10;99.90;;;;;;5062101;28;20229;-52
2023/12/31 11:42:11;;;;;;;5.63;4.40;;;11.10;99.90;;;;;;5061711;28;20178;-49
2023/12/31 11:44:39;;;;;;;7.15;4.68;;;11.00;99.90;;;;;;5062454;28;20215;-48
2023/12/31 11:47:15;;;;;;;7.25;4.55;;;10.90;99.90;;;;;;5060493;28;20233;-47
2023/12/31 11:49:46;;;;;;;5.60;3.60;;;10.90;99.90;;;;;;5062710;28;20198;-50
2023/12/31 11:52:12;;;;;;;3.45;2.72;;;10.80;99.90;;;;;;5060892;28;20666;-53
2023/12/31 11:54:39;;;;;;;5.00;2.70;;;10.70;99.90;;;;;;5059759;28;20221;-50
2023/12/31 11:57:08;;;;;;;3.97;2.15;;;10.70;99.90;;;;;;5062466;28;20274;-46
2023/12/31 11:59:35;;;;;;;2.05;1.85;;;10.60;99.90;;;;;;5061068;28;20194;-49
2023/12/31 12:02:02;;;;;;;2.42;1.70;;;10.50;99.90;;;;;;5060947;28;20194;-47
2023/12/31 12:04:29;;;;;;;3.35;1.98;;;10.50;99.90;;;;;;5061019;28;21341;-45
2023/12/31 12:06:55;;;;;;;5.03;1.70;;;10.40;99.90;;;;;;5062242;28;20196;-46
2023/12/31 12:09:29;;;;;;;5.20;2.00;;;10.40;99.90;;;;;;5059091;28;20294;-47
2023/12/31 12:12:03;;;;;;;5.28;2.00;;;10.30;99.90;;;;;;5012371;28;20187;-43
2023/12/31 12:14:30;;;;;;;3.13;1.73;;;10.30;99.90;;;;;;5045888;28;20576;-49
2023/12/31 12:16:57;;;;;;;1.70;1.40;;;10.20;99.90;;;;;;5027551;28;20190;-48
2023/12/31 12:19:24;;;;;;;3.38;1.20;;;10.20;99.90;;;;;;5062063;28;20201;-49
2023/12/31 12:21:50;;;;;;;10.50;6.55;;;10.20;99.90;;;;;;5060787;28;20717;-49
2023/12/31 12:24:17;;;;;;;3.03;1.50;;;10.10;99.90;;;;;;5061172;28;20178;-48
2023/12/31 12:26:50;;;;;;;1.88;1.40;;;10.10;99.90;;;;;;5060818;28;20190;-54
2023/12/31 12:29:16;;;;;;;10.30;8.13;;;10.10;99.90;;;;;;5060178;28;20666;-42
2023/12/31 12:31:46;;;;;;;5.00;3.63;;;10.10;99.90;;;;;;5062040;28;20225;-50
2023/12/31 12:34:16;;;;;;;7.57;4.05;;;10.10;99.90;;;;;;5060408;28;20178;-47
2023/12/31 12:36:42;;;;;;;4.32;2.75;;;10.10;99.90;;;;;;5060221;28;20232;-47
2023/12/31 12:39:22;;;;;;;6.53;3.80;;;10.20;99.90;;;;;;5059741;28;20196;-53
2023/12/31 12:41:50;;;;;;;4.22;2.63;;;10.20;99.90;;;;;;5061802;28;21302;-47
2023/12/31 12:44:17;;;;;;;5.25;2.70;;;10.30;99.90;;;;;;5060180;28;20273;-53
2023/12/31 12:46:46;;;;;;;3.20;2.38;;;10.40;99.90;;;;;;5059936;28;20315;-51
2023/12/31 12:49:13;;;;;;;6.20;3.38;;;10.50;99.90;;;;;;5060246;28;20619;-50
2023/12/31 12:51:40;;;;;;;4.82;2.78;;;10.60;99.90;;;;;;5058998;28;20186;-54
2023/12/31 12:54:07;;;;;;;4.72;2.80;;;10.60;99.90;;;;;;5060313;28;20190;-44